< Typhoon 202014 2020 Season Typhoon 202016 >
Typhoon 202015 (LINFA)
General InformationTrack Information on Google MapsDetailed Wind InformationForecast History on Google MapsAccess Analytics MapList of All Images || NewsDisaster Info.WeblogTrackbackTyphoon FrontTwiphoonTyphoon Now!Typhoon ImaginationJMA Disaster Info. XMLResourceGoogle EarthGE AnimationAtom FeedGeoJSON
Detalied Best Track (Time Zone = UTC)
Year Month Day Hour Lat. Long. Pressure (hPa) Wind (kt) Class Image Chart
2020 10 6 18 13.8 125.9 1004 0 2 Image Chart
2020 10 7 00 13.8 125.4 1006 0 2 Image Chart
2020 10 7 06 13.8 124.8 1004 0 2 Image Chart
2020 10 7 12 13.8 124.3 1006 0 2 Image Chart
2020 10 7 18 13.7 123.9 1006 0 2 Image Chart
2020 10 8 00 13.2 122.6 1008 0 2 Image Chart
2020 10 8 06 12.9 121.2 1006 0 2 Image Chart
2020 10 8 12 12.8 119.1 1008 0 2 Image Chart
2020 10 8 18 12.7 118.0 1006 0 2 Image Chart
2020 10 9 00 12.8 116.8 1006 0 2 Image Chart
2020 10 9 06 13.2 115.7 1004 0 2 Image Chart
2020 10 9 12 13.4 115.2 1006 0 2 Image Chart
2020 10 9 18 13.5 114.7 1004 0 2 Image Chart
2020 10 10 00 13.7 114.2 1004 0 2 Image Chart
2020 10 10 06 14.3 113.1 1002 0 2 Image Chart
2020 10 10 12 14.5 111.7 1002 0 2 Image Chart
2020 10 10 18 14.6 110.2 998 35 3 Image Chart
2020 10 11 00 14.9 109.4 994 45 3 Image Chart
2020 10 11 06 15.2 108.5 998 35 3 Image Chart
2020 10 11 12 14.9 107.9 1002 0 2 Image Chart
2020 10 11 18 14.6 107.3 1002 0 2 Image Chart
2020 10 12 00 14.4 106.9 1004 0 2 Image Chart
2020 10 12 06 14.2 106.7 1002 0 2 Image Chart
Japan Meteorological Agency Best Track Data | Correction Date : 2021-01-14
< Typhoon 202014 2020 Season Typhoon 202016 >

Help